createdAt,value
2023-02-14T00:03:33.061Z,39.38
2023-02-14T00:08:35.099Z,42.55
2023-02-14T00:13:36.934Z,43.72
2023-02-14T00:18:56.951Z,43.65
2023-02-14T00:23:58.914Z,55.35
2023-02-14T00:29:00.777Z,48.20
2023-02-14T00:34:03.186Z,41.30
2023-02-14T00:39:06.378Z,54.95
2023-02-14T00:44:09.316Z,49.75
2023-02-14T00:49:11.293Z,43.67
2023-02-14T00:54:13.194Z,46.53
2023-02-14T00:59:15.120Z,14.30
2023-02-14T01:04:17.295Z,29.30
2023-02-14T01:09:20.697Z,31.23
2023-02-14T01:14:22.565Z,27.85
2023-02-14T01:19:24.898Z,17.92
2023-02-14T01:24:26.957Z,22.30
2023-02-14T01:29:28.858Z,19.40
2023-02-14T01:34:30.728Z,25.23
2023-02-14T01:39:32.612Z,24.70
2023-02-14T01:44:37.379Z,19.98
2023-02-14T01:49:49.494Z,18.75
2023-02-14T01:55:00.979Z,22.10
2023-02-14T02:05:23.941Z,13.70
2023-02-14T02:10:26.560Z,13.85
2023-02-14T02:15:35.318Z,14.15
2023-02-14T02:21:02.098Z,17.88
2023-02-14T02:26:22.439Z,21.88
2023-02-14T02:32:06.377Z,23.92
2023-02-14T02:37:44.626Z,19.10
2023-02-14T02:43:22.124Z,19.15
2023-02-14T02:48:31.237Z,23.30
2023-02-14T02:54:03.030Z,22.05
2023-02-14T02:59:20.794Z,21.92
2023-02-14T03:04:46.796Z,22.15
2023-02-14T03:09:53.088Z,26.20
2023-02-14T03:15:39.137Z,29.08
2023-02-14T03:20:55.300Z,22.25
2023-02-14T03:26:16.657Z,28.25
2023-02-14T03:31:27.949Z,29.98
2023-02-14T03:36:41.344Z,29.67
2023-02-14T03:41:50.806Z,30.08
2023-02-14T03:47:15.282Z,38.83
2023-02-14T03:52:18.545Z,35.90
2023-02-14T03:57:32.417Z,29.48
2023-02-14T04:02:39.254Z,31.17
2023-02-14T04:07:50.748Z,32.25
2023-02-14T04:12:54.054Z,27.63
2023-02-14T04:18:14.552Z,32.88
2023-02-14T04:28:18.124Z,34.08
2023-02-14T04:33:19.945Z,32.50
2023-02-14T04:38:21.866Z,26.45
2023-02-14T04:43:23.706Z,35.42
2023-02-14T04:48:25.538Z,31.45
2023-02-14T04:53:27.417Z,32.10
2023-02-14T04:58:29.259Z,34.83
2023-02-14T05:03:31.085Z,26.85
2023-02-14T05:08:32.933Z,27.88
2023-02-14T05:13:34.801Z,24.08
2023-02-14T05:18:36.670Z,25.92
2023-02-14T05:23:38.626Z,33.75
2023-02-14T05:28:41.191Z,30.13
2023-02-14T05:33:43.039Z,39.65
2023-02-14T05:38:44.915Z,40.60
2023-02-14T05:43:46.784Z,42.13
2023-02-14T05:48:48.708Z,37.88
2023-02-14T05:53:50.542Z,46.42
2023-02-14T05:58:52.414Z,45.67
2023-02-14T06:03:54.270Z,36.58
2023-02-14T06:08:56.142Z,37.60
2023-02-14T06:13:57.978Z,36.80
2023-02-14T06:18:59.796Z,31.30
2023-02-14T06:24:02.186Z,30.17
2023-02-14T06:29:04.557Z,28.45
2023-02-14T06:34:06.414Z,33.95
2023-02-14T06:39:08.335Z,30.42
2023-02-14T06:44:10.610Z,33.35
2023-02-14T06:49:12.561Z,33.42
2023-02-14T06:54:14.399Z,30.77
2023-02-14T06:59:16.294Z,29.48
2023-02-14T07:04:18.697Z,30.38
2023-02-14T07:09:20.534Z,31.58
2023-02-14T07:14:22.538Z,35.58
2023-02-14T07:19:24.634Z,29.85
2023-02-14T07:24:26.762Z,26.42
2023-02-14T07:29:28.600Z,25.73
2023-02-14T07:34:30.548Z,27.73
2023-02-14T07:39:32.653Z,22.98
2023-02-14T07:44:35.037Z,19.85
2023-02-14T07:49:37.225Z,28.08
2023-02-14T07:54:39.039Z,18.05
2023-02-14T07:59:40.892Z,21.42
2023-02-14T08:04:42.753Z,25.58
2023-02-14T08:09:44.645Z,24.10
2023-02-14T08:14:46.515Z,19.77
2023-02-14T08:19:48.351Z,22.10
2023-02-14T08:24:50.191Z,21.75
2023-02-14T08:29:52.016Z,21.08
2023-02-14T08:34:53.889Z,23.35
2023-02-14T08:39:55.707Z,22.52
2023-02-14T08:44:57.593Z,27.58
2023-02-14T08:49:59.505Z,23.52
2023-02-14T08:55:02.911Z,21.08
2023-02-14T09:00:06.794Z,21.20
2023-02-14T09:05:10.797Z,22.13
2023-02-14T09:10:13.268Z,27.63
2023-02-14T09:15:15.697Z,23.10
2023-02-14T09:20:21.151Z,24.52
2023-02-14T09:25:23.043Z,24.20
2023-02-14T09:30:24.996Z,25.77
2023-02-14T09:35:26.896Z,26.30
2023-02-14T09:40:29.034Z,21.55
2023-02-14T09:45:33.138Z,23.10
2023-02-14T09:50:42.150Z,21.58
2023-02-14T09:55:59.699Z,25.30
2023-02-14T10:01:16.763Z,22.52
2023-02-14T10:06:36.684Z,25.52
2023-02-14T10:11:40.689Z,16.88
2023-02-14T10:16:57.925Z,24.77
2023-02-14T10:22:04.052Z,20.73
2023-02-14T10:27:46.372Z,26.38
2023-02-14T10:33:04.551Z,27.58
2023-02-14T10:38:17.514Z,23.88
2023-02-14T10:43:28.310Z,21.92
2023-02-14T10:48:57.947Z,24.23
2023-02-14T10:54:02.564Z,22.98
2023-02-14T10:59:30.652Z,20.95
2023-02-14T11:04:33.073Z,19.73
2023-02-14T11:09:34.877Z,19.40
2023-02-14T11:14:38.941Z,21.23
2023-02-14T11:19:40.812Z,18.10
2023-02-14T11:24:42.632Z,22.42
2023-02-14T11:29:48.290Z,19.77
2023-02-14T11:35:00.558Z,18.27
2023-02-14T11:40:03.981Z,19.02
2023-02-14T11:45:06.536Z,21.42
2023-02-14T11:50:24.856Z,17.35
2023-02-14T11:55:30.224Z,15.75
2023-02-14T12:00:32.699Z,12.50
2023-02-14T12:05:45.201Z,14.45
2023-02-14T12:11:02.283Z,21.88
2023-02-14T12:16:04.421Z,16.45
2023-02-14T12:21:30.910Z,16.55
2023-02-14T12:26:40.766Z,15.35
2023-02-14T12:31:44.374Z,15.85
2023-02-14T12:37:33.750Z,17.33
2023-02-14T12:43:07.350Z,19.50
2023-02-14T12:48:55.347Z,22.05
2023-02-14T12:54:03.552Z,22.80
2023-02-14T12:59:24.936Z,19.33
2023-02-14T13:04:48.402Z,19.65
2023-02-14T13:09:50.175Z,20.90
2023-02-14T13:15:07.431Z,21.35
2023-02-14T13:20:34.332Z,20.55
2023-02-14T13:25:42.844Z,20.50
2023-02-14T13:30:45.144Z,20.73
2023-02-14T13:35:47.989Z,23.55
2023-02-14T13:40:50.290Z,19.30
2023-02-14T13:45:54.652Z,20.92
2023-02-14T13:51:03.372Z,18.08
2023-02-14T13:56:17.413Z,15.45
2023-02-14T14:01:32.867Z,19.08
2023-02-14T14:07:13.596Z,17.38
2023-02-14T14:12:27.568Z,21.10
2023-02-14T14:17:29.541Z,21.42
2023-02-14T14:22:31.660Z,17.75
2023-02-14T14:27:42.708Z,26.17
2023-02-14T14:32:45.505Z,29.30
2023-02-14T14:37:59.050Z,27.80
2023-02-14T14:43:07.231Z,31.73
2023-02-14T14:48:12.988Z,33.30
2023-02-14T14:53:45.644Z,33.42
2023-02-14T14:58:47.966Z,37.85
2023-02-14T15:03:50.040Z,30.52
2023-02-14T15:08:52.009Z,33.40
2023-02-14T15:13:54.008Z,35.83
2023-02-14T15:19:07.180Z,34.95
2023-02-14T15:24:14.928Z,36.17
2023-02-14T15:29:34.622Z,34.22
2023-02-14T15:34:36.794Z,38.93
2023-02-14T15:39:49.496Z,40.33
2023-02-14T15:45:11.561Z,33.65
2023-02-14T15:50:19.822Z,38.55
2023-02-14T15:55:26.835Z,47.05
2023-02-14T16:00:29.296Z,40.58
2023-02-14T16:05:31.438Z,39.25
2023-02-14T16:10:37.779Z,44.28
2023-02-14T16:15:55.862Z,40.80
2023-02-14T16:21:18.600Z,44.30
2023-02-14T16:26:20.373Z,47.08
2023-02-14T16:31:22.687Z,48.63
2023-02-14T16:36:33.306Z,49.67
2023-02-14T16:41:35.269Z,60.65
2023-02-14T16:46:37.179Z,49.58
2023-02-14T16:51:43.015Z,52.72
2023-02-14T16:57:02.520Z,59.45
2023-02-14T17:02:04.349Z,52.42
2023-02-14T17:07:06.896Z,49.97
2023-02-14T17:12:16.501Z,49.47
2023-02-14T17:17:18.590Z,53.60
2023-02-14T17:22:20.744Z,43.38
2023-02-14T17:27:22.543Z,52.33
2023-02-14T17:32:24.450Z,51.83
2023-02-14T17:37:26.319Z,54.75
2023-02-14T17:42:28.337Z,58.28
2023-02-14T17:47:30.317Z,55.05
2023-02-14T17:52:32.336Z,56.05
2023-02-14T17:57:35.089Z,61.75
2023-02-14T18:02:37.325Z,80.10
2023-02-14T18:07:40.036Z,72.80
2023-02-14T18:12:42.072Z,69.53
2023-02-14T18:17:44.000Z,71.65
2023-02-14T18:22:45.916Z,71.15
2023-02-14T18:27:48.930Z,65.15
2023-02-14T18:32:50.872Z,60.50
2023-02-14T18:37:52.821Z,59.30
2023-02-14T18:42:55.217Z,61.03
2023-02-14T18:47:57.041Z,61.60
2023-02-14T18:52:59.179Z,64.30
2023-02-14T18:58:00.966Z,55.60
2023-02-14T19:03:02.849Z,52.72
2023-02-14T19:08:05.787Z,52.25
2023-02-14T19:13:07.607Z,62.45
2023-02-14T19:18:09.434Z,54.53
2023-02-14T19:23:11.272Z,55.55
2023-02-14T19:28:13.619Z,52.20
2023-02-14T19:33:15.448Z,48.25
2023-02-14T19:38:17.666Z,52.42
2023-02-14T19:43:19.537Z,51.28
2023-02-14T19:48:21.564Z,64.72
2023-02-14T19:53:23.405Z,53.40
2023-02-14T19:58:26.165Z,55.60
2023-02-14T20:03:28.214Z,69.53
2023-02-14T20:08:30.047Z,68.25
2023-02-14T20:13:31.880Z,65.97
2023-02-14T20:18:34.779Z,68.82
2023-02-14T20:23:36.628Z,83.82
2023-02-14T20:28:38.480Z,73.50
2023-02-14T20:33:41.380Z,62.35
2023-02-14T20:38:43.241Z,59.25
2023-02-14T20:43:45.098Z,47.25
2023-02-14T20:48:46.979Z,53.15
2023-02-14T20:53:48.877Z,46.42
2023-02-14T20:58:50.978Z,44.47
2023-02-14T21:03:55.278Z,40.40
2023-02-14T21:08:57.903Z,41.55
2023-02-14T21:14:01.175Z,41.78
2023-02-14T21:19:04.406Z,45.85
2023-02-14T21:24:14.858Z,42.33
2023-02-14T21:29:16.794Z,42.90
2023-02-14T21:34:18.606Z,39.53
2023-02-14T21:39:25.512Z,35.50
2023-02-14T21:44:46.404Z,37.97
2023-02-14T21:50:07.536Z,34.15
2023-02-14T21:55:09.432Z,39.45
2023-02-14T22:00:12.232Z,33.47
2023-02-14T22:05:14.065Z,33.70
2023-02-14T22:10:16.039Z,30.48
2023-02-14T22:15:18.439Z,36.25
2023-02-14T22:20:20.512Z,36.78
2023-02-14T22:25:22.864Z,31.27
2023-02-14T22:30:25.015Z,35.58
2023-02-14T22:35:27.279Z,39.58
2023-02-14T22:40:29.131Z,39.45
2023-02-14T22:45:30.981Z,34.35
2023-02-14T22:50:35.596Z,29.13
2023-02-14T22:55:37.521Z,35.75
2023-02-14T23:00:39.351Z,37.30
2023-02-14T23:05:41.133Z,32.28
2023-02-14T23:10:43.672Z,32.53
2023-02-14T23:16:04.309Z,31.58
2023-02-14T23:21:33.374Z,34.17
2023-02-14T23:26:37.282Z,27.42
2023-02-14T23:31:39.531Z,35.22
2023-02-14T23:36:41.478Z,30.90
2023-02-14T23:41:52.229Z,28.55
2023-02-14T23:46:56.746Z,32.83
2023-02-14T23:51:58.632Z,34.97
2023-02-14T23:57:00.656Z,45.75
